createdAt,value
2022-08-20T00:02:17.794Z,100707.94
2022-08-20T00:04:47.074Z,100700.94
2022-08-20T00:07:16.149Z,100694.84
2022-08-20T00:09:46.218Z,100698.34
2022-08-20T00:12:18.856Z,100725.41
2022-08-20T00:14:47.718Z,100718.38
2022-08-20T00:17:17.482Z,100680.50
2022-08-20T00:19:47.939Z,100713.44
2022-08-20T00:22:17.069Z,100714.38
2022-08-20T00:24:46.429Z,100703.13
2022-08-20T00:27:14.994Z,100721.19
2022-08-20T00:29:46.091Z,100693.84
2022-08-20T00:32:14.616Z,100692.81
2022-08-20T00:34:43.199Z,100707.56
2022-08-20T00:37:11.872Z,100738.78
2022-08-20T00:39:40.389Z,100722.91
2022-08-20T00:42:09.445Z,100725.50
2022-08-20T00:44:44.732Z,100707.56
2022-08-20T00:47:13.490Z,100690.69
2022-08-20T00:49:42.431Z,100740.41
2022-08-20T00:52:16.612Z,100744.78
2022-08-20T00:54:59.054Z,100734.66
2022-08-20T00:57:56.772Z,100741.28
2022-08-20T01:00:29.602Z,100740.56
2022-08-20T01:03:00.075Z,100749.09
2022-08-20T01:05:29.595Z,100742.13
2022-08-20T01:07:59.337Z,100749.94
2022-08-20T01:10:33.151Z,100733.53
2022-08-20T01:13:04.756Z,100731.22
2022-08-20T01:15:33.252Z,100733.63
2022-08-20T01:18:03.177Z,100754.75
2022-08-20T01:20:49.303Z,100722.69
2022-08-20T01:23:48.669Z,100764.63
2022-08-20T01:26:28.154Z,100765.91
2022-08-20T01:29:08.639Z,100709.69
2022-08-20T01:31:41.325Z,100762.50
2022-08-20T01:34:14.303Z,100729.25
2022-08-20T01:36:49.688Z,100744.84
2022-08-20T01:39:22.827Z,100769.81
2022-08-20T01:42:13.740Z,100759.59
2022-08-20T01:44:47.921Z,100752.06
2022-08-20T01:47:22.238Z,100774.50
2022-08-20T01:50:00.370Z,100680.66
2022-08-20T01:52:31.710Z,100783.66
2022-08-20T01:55:00.480Z,100773.31
2022-08-20T01:57:29.826Z,100750.97
2022-08-20T01:59:58.389Z,100775.69
2022-08-20T02:02:27.124Z,100795.28
2022-08-20T02:04:56.147Z,100766.28
2022-08-20T02:07:24.989Z,100772.09
2022-08-20T02:09:53.855Z,100790.03
2022-08-20T02:12:22.508Z,100751.59
2022-08-20T02:14:54.569Z,100747.16
2022-08-20T02:17:26.054Z,100802.97
2022-08-20T02:20:07.056Z,100787.47
2022-08-20T02:22:38.566Z,100788.91
2022-08-20T02:25:10.204Z,100784.13
2022-08-20T02:27:41.445Z,100787.56
2022-08-20T02:30:27.523Z,100795.78
2022-08-20T02:33:01.364Z,100795.88
2022-08-20T02:35:33.165Z,100784.91
2022-08-20T02:38:03.505Z,100800.88
2022-08-20T02:40:32.888Z,100806.56
2022-08-20T02:43:03.550Z,100788.25
2022-08-20T02:45:40.823Z,100745.91
2022-08-20T02:48:09.486Z,100792.91
2022-08-20T02:50:38.184Z,100801.31
2022-08-20T02:53:06.854Z,100810.66
2022-08-20T02:55:35.406Z,100814.00
2022-08-20T02:58:04.084Z,100800.97
2022-08-20T03:00:37.901Z,100813.22
2022-08-20T03:03:08.927Z,100812.13
2022-08-20T03:05:41.426Z,100812.63
2022-08-20T03:08:12.240Z,100799.66
2022-08-20T03:10:42.980Z,100808.84
2022-08-20T03:13:13.278Z,100807.28
2022-08-20T03:15:49.040Z,100810.38
2022-08-20T03:18:20.492Z,100809.16
2022-08-20T03:20:51.316Z,100805.63
2022-08-20T03:23:22.326Z,100832.31
2022-08-20T03:25:51.168Z,100825.59
2022-08-20T03:28:20.450Z,100835.88
2022-08-20T03:30:49.007Z,100824.72
2022-08-20T03:33:17.673Z,100850.38
2022-08-20T03:35:46.280Z,100822.56
2022-08-20T03:38:18.021Z,100850.44
2022-08-20T03:40:51.160Z,100823.63
2022-08-20T03:43:20.166Z,100757.22
2022-08-20T03:45:48.997Z,100834.53
2022-08-20T03:48:20.524Z,100828.66
2022-08-20T03:50:51.568Z,100848.13
2022-08-20T03:53:20.309Z,100847.38
2022-08-20T03:55:53.911Z,100831.56
2022-08-20T03:58:34.757Z,100825.47
2022-08-20T04:01:07.444Z,100842.50
2022-08-20T04:03:42.096Z,100842.44
2022-08-20T04:06:10.578Z,100862.31
2022-08-20T04:08:42.583Z,100814.78
2022-08-20T04:11:11.136Z,100838.78
2022-08-20T04:13:42.641Z,100837.19
2022-08-20T04:16:14.736Z,100838.59
2022-08-20T04:18:58.574Z,100866.56
2022-08-20T04:21:33.374Z,100826.97
2022-08-20T04:24:05.391Z,100869.59
2022-08-20T04:26:37.145Z,100849.22
2022-08-20T04:29:06.019Z,100877.09
2022-08-20T04:31:35.501Z,100878.16
2022-08-20T04:34:08.793Z,100864.38
2022-08-20T04:36:37.408Z,100853.00
2022-08-20T04:39:06.309Z,100870.22
2022-08-20T04:41:35.197Z,100868.00
2022-08-20T04:44:04.374Z,100857.31
2022-08-20T04:46:33.417Z,100847.78
2022-08-20T04:49:03.928Z,100879.75
2022-08-20T04:51:34.646Z,100860.75
2022-08-20T04:54:05.810Z,100871.94
2022-08-20T04:56:39.864Z,100877.34
2022-08-20T04:59:08.921Z,100881.47
2022-08-20T05:01:37.905Z,100874.38
2022-08-20T05:04:06.434Z,100873.34
2022-08-20T05:06:35.158Z,100851.69
2022-08-20T05:09:04.422Z,100875.69
2022-08-20T05:11:36.751Z,100860.63
2022-08-20T05:14:09.230Z,100887.47
2022-08-20T05:16:39.751Z,100864.34
2022-08-20T05:19:10.669Z,100867.56
2022-08-20T05:21:39.312Z,100870.66
2022-08-20T05:24:08.827Z,100811.63
2022-08-20T05:26:40.035Z,100872.59
2022-08-20T05:29:08.532Z,100858.06
2022-08-20T05:31:38.260Z,100865.91
2022-08-20T05:34:12.642Z,100869.56
2022-08-20T05:36:43.846Z,100857.97
2022-08-20T05:39:14.087Z,100858.06
2022-08-20T05:41:42.788Z,100861.81
2022-08-20T05:44:14.115Z,100840.59
2022-08-20T05:46:44.989Z,100855.06
2022-08-20T05:49:20.778Z,100855.28
2022-08-20T05:51:51.919Z,100849.91
2022-08-20T05:54:20.839Z,100762.78
2022-08-20T05:56:49.282Z,100854.22
2022-08-20T05:59:23.545Z,100850.69
2022-08-20T06:01:53.692Z,100816.69
2022-08-20T06:04:25.564Z,100852.47
2022-08-20T06:07:02.401Z,100844.03
2022-08-20T06:09:32.798Z,100857.09
2022-08-20T06:12:03.303Z,100859.19
2022-08-20T06:14:32.907Z,100824.38
2022-08-20T06:17:16.890Z,100850.31
2022-08-20T06:19:47.648Z,100827.38
2022-08-20T06:22:18.559Z,100816.66
2022-08-20T06:24:52.423Z,100810.03
2022-08-20T06:27:21.745Z,100836.56
2022-08-20T06:29:51.713Z,100840.97
2022-08-20T06:32:31.715Z,100810.31
2022-08-20T06:35:06.871Z,100813.00
2022-08-20T06:37:37.387Z,100810.78
2022-08-20T06:40:13.157Z,100817.75
2022-08-20T06:42:48.273Z,100837.50
2022-08-20T06:45:20.633Z,100811.09
2022-08-20T06:47:49.265Z,100806.41
2022-08-20T06:50:22.910Z,100823.28
2022-08-20T06:52:53.186Z,100820.91
2022-08-20T06:55:23.409Z,100841.13
2022-08-20T06:58:06.475Z,100826.53
2022-08-20T07:00:37.454Z,100843.56
2022-08-20T07:03:06.194Z,100810.50
2022-08-20T07:05:42.850Z,100821.44
2022-08-20T07:08:16.116Z,100842.47
2022-08-20T07:10:44.823Z,100841.03
2022-08-20T07:13:15.489Z,100847.38
2022-08-20T07:15:45.702Z,100849.94
2022-08-20T07:18:15.052Z,100808.97
2022-08-20T07:20:44.888Z,100852.34
2022-08-20T07:23:13.469Z,100792.06
2022-08-20T07:25:44.848Z,100848.38
2022-08-20T07:28:20.575Z,100852.06
2022-08-20T07:31:13.503Z,100831.66
2022-08-20T07:33:44.927Z,100835.91
2022-08-20T07:36:14.321Z,100841.50
2022-08-20T07:38:46.604Z,100811.47
2022-08-20T07:41:15.589Z,100832.06
2022-08-20T07:43:48.167Z,100831.34
2022-08-20T07:46:20.624Z,100834.03
2022-08-20T07:48:50.876Z,100803.84
2022-08-20T07:51:21.511Z,100818.88
2022-08-20T07:53:52.334Z,100818.31
2022-08-20T07:56:24.589Z,100834.94
2022-08-20T07:58:56.964Z,100806.09
2022-08-20T08:01:30.442Z,100831.09
2022-08-20T08:04:00.388Z,100829.94
2022-08-20T08:06:31.832Z,100821.69
2022-08-20T08:09:05.456Z,100831.38
2022-08-20T08:11:38.369Z,100804.03
2022-08-20T08:14:10.250Z,100796.63
2022-08-20T08:16:39.957Z,100808.38
2022-08-20T08:19:12.649Z,100832.50
2022-08-20T08:21:42.193Z,100830.53
2022-08-20T08:24:15.421Z,100821.44
2022-08-20T08:26:45.983Z,100804.75
2022-08-20T08:29:14.479Z,100826.78
2022-08-20T08:31:43.532Z,100719.09
2022-08-20T08:34:12.812Z,100823.84
2022-08-20T08:36:41.789Z,100806.72
2022-08-20T08:39:11.256Z,100819.44
2022-08-20T08:41:50.333Z,100803.19
2022-08-20T08:44:27.152Z,100809.31
2022-08-20T08:47:29.709Z,100804.63
2022-08-20T08:50:33.414Z,100785.50
2022-08-20T08:53:42.429Z,100804.28
2022-08-20T08:56:16.415Z,100715.75
2022-08-20T08:58:45.194Z,100832.75
2022-08-20T09:01:55.499Z,100789.81
2022-08-20T09:04:10.801Z,100781.72
2022-08-20T09:06:41.057Z,100812.06
2022-08-20T09:09:18.719Z,100804.97
2022-08-20T09:11:51.737Z,100809.78
2022-08-20T09:14:21.023Z,100799.53
2022-08-20T09:16:52.997Z,100797.50
2022-08-20T09:19:22.580Z,100819.06
2022-08-20T09:21:51.217Z,100774.47
2022-08-20T09:24:19.796Z,100819.22
2022-08-20T09:26:48.521Z,100769.09
2022-08-20T09:29:17.161Z,100811.81
2022-08-20T09:31:46.313Z,100784.28
2022-08-20T09:34:15.219Z,100805.53
2022-08-20T09:36:43.948Z,100774.13
2022-08-20T09:39:13.167Z,100815.75
2022-08-20T09:41:42.259Z,100792.22
2022-08-20T09:44:11.001Z,100789.69
2022-08-20T09:46:39.396Z,100821.75
2022-08-20T09:49:08.886Z,100782.22
2022-08-20T09:51:39.489Z,100805.47
2022-08-20T09:54:08.280Z,100797.41
2022-08-20T09:56:37.882Z,100782.06
2022-08-20T09:59:11.347Z,100787.00
2022-08-20T10:01:50.584Z,100802.75
2022-08-20T10:04:29.931Z,100799.34
2022-08-20T10:06:58.518Z,100813.00
2022-08-20T10:09:27.574Z,100774.97
2022-08-20T10:11:56.287Z,100762.69
2022-08-20T10:14:24.794Z,100762.41
2022-08-20T10:17:01.146Z,100803.66
2022-08-20T10:19:31.785Z,100772.06
2022-08-20T10:22:01.091Z,100795.75
2022-08-20T10:24:30.470Z,100791.13
2022-08-20T10:27:01.032Z,100768.91
2022-08-20T10:29:31.217Z,100784.22
2022-08-20T10:32:13.185Z,100778.56
2022-08-20T10:34:43.929Z,100797.41
2022-08-20T10:37:23.199Z,100711.63
2022-08-20T10:39:52.574Z,100778.22
2022-08-20T10:42:21.290Z,100787.72
2022-08-20T10:44:49.777Z,100746.22
2022-08-20T10:47:21.809Z,100775.13
2022-08-20T10:49:52.254Z,100755.28
2022-08-20T10:52:26.284Z,100753.50
2022-08-20T10:54:55.150Z,100777.16
2022-08-20T10:57:27.070Z,100781.84
2022-08-20T10:59:58.094Z,100777.44
2022-08-20T11:02:28.367Z,100743.69
2022-08-20T11:04:57.735Z,100777.75
2022-08-20T11:07:50.695Z,100778.31
2022-08-20T11:10:19.301Z,100777.16
2022-08-20T11:12:51.783Z,100765.53
2022-08-20T11:15:20.648Z,100756.59
2022-08-20T11:17:49.151Z,100768.81
2022-08-20T11:20:20.560Z,100755.22
2022-08-20T11:22:49.231Z,100764.13
2022-08-20T11:25:18.088Z,100732.09
2022-08-20T11:27:49.755Z,100706.56
2022-08-20T11:30:34.849Z,100742.56
2022-08-20T11:33:04.669Z,100734.47
2022-08-20T11:35:48.296Z,100771.47
2022-08-20T11:38:18.481Z,100756.72
2022-08-20T11:40:47.550Z,100752.72
2022-08-20T11:43:17.982Z,100707.66
2022-08-20T11:45:54.058Z,100764.09
2022-08-20T11:48:31.690Z,100729.03
2022-08-20T11:51:00.333Z,100752.00
2022-08-20T11:53:28.992Z,100739.34
2022-08-20T11:55:59.950Z,100771.44
2022-08-20T11:58:28.635Z,100742.78
2022-08-20T12:00:57.244Z,100740.22
2022-08-20T12:03:25.798Z,100748.56
2022-08-20T12:05:54.586Z,100709.56
2022-08-20T12:08:25.315Z,100745.31
2022-08-20T12:10:59.733Z,100746.84
2022-08-20T12:13:47.545Z,100724.72
2022-08-20T12:16:19.121Z,100736.63
2022-08-20T12:18:48.592Z,100727.69
2022-08-20T12:21:17.938Z,100616.66
2022-08-20T12:23:47.452Z,100733.06
2022-08-20T12:26:17.469Z,100744.81
2022-08-20T12:28:46.251Z,100729.16
2022-08-20T12:31:14.862Z,100733.25
2022-08-20T12:33:43.496Z,100705.03
2022-08-20T12:36:11.911Z,100721.88
2022-08-20T12:38:40.584Z,100677.56
2022-08-20T12:41:09.155Z,100718.47
2022-08-20T12:43:38.133Z,100719.91
2022-08-20T12:46:07.224Z,100704.13
2022-08-20T12:48:35.906Z,100739.41
2022-08-20T12:51:04.668Z,100694.22
2022-08-20T12:53:33.328Z,100733.06
2022-08-20T12:56:06.003Z,100713.75
2022-08-20T12:58:35.309Z,100694.44
2022-08-20T13:01:04.219Z,100724.63
2022-08-20T13:03:32.901Z,100712.84
2022-08-20T13:06:09.615Z,100729.81
2022-08-20T13:08:38.161Z,100723.13
2022-08-20T13:11:07.113Z,100700.13
2022-08-20T13:13:38.423Z,100714.69
2022-08-20T13:16:07.364Z,100701.56
2022-08-20T13:18:35.909Z,100717.16
2022-08-20T13:21:04.642Z,100720.81
2022-08-20T13:23:33.204Z,100702.00
2022-08-20T13:26:01.947Z,100694.94
2022-08-20T13:28:31.074Z,100679.03
2022-08-20T13:30:59.810Z,100675.59
2022-08-20T13:33:29.093Z,100708.53
2022-08-20T13:36:00.464Z,100729.00
2022-08-20T13:38:32.282Z,100729.25
2022-08-20T13:41:00.730Z,100724.50
2022-08-20T13:43:29.422Z,100656.41
2022-08-20T13:45:57.777Z,100722.69
2022-08-20T13:48:26.419Z,100693.97
2022-08-20T13:50:55.029Z,100695.91
2022-08-20T13:53:23.669Z,100676.34
2022-08-20T13:55:52.515Z,100706.66
2022-08-20T13:58:24.459Z,100586.06
2022-08-20T14:00:53.133Z,100701.94
2022-08-20T14:03:25.753Z,100700.34
2022-08-20T14:05:54.768Z,100686.56
2022-08-20T14:08:25.358Z,100711.41
2022-08-20T14:10:54.077Z,100716.63
2022-08-20T14:13:25.831Z,100714.13
2022-08-20T14:15:55.820Z,100714.47
2022-08-20T14:18:24.548Z,100699.91
2022-08-20T14:20:53.059Z,100706.81
2022-08-20T14:23:21.775Z,100724.19
2022-08-20T14:25:51.263Z,100706.50
2022-08-20T14:28:25.630Z,100717.03
2022-08-20T14:30:54.417Z,100677.06
2022-08-20T14:33:24.753Z,100722.03
2022-08-20T14:35:53.744Z,100667.72
2022-08-20T14:38:22.512Z,100694.63
2022-08-20T14:40:51.388Z,100705.31
2022-08-20T14:43:20.480Z,100707.09
2022-08-20T14:45:49.127Z,100706.13
2022-08-20T14:48:17.785Z,100733.56
2022-08-20T14:50:46.278Z,100700.38
2022-08-20T14:53:15.034Z,100716.78
2022-08-20T14:55:43.742Z,100697.38
2022-08-20T14:58:13.940Z,100674.97
2022-08-20T15:00:44.347Z,100732.34
2022-08-20T15:03:14.150Z,100727.06
2022-08-20T15:05:43.911Z,100744.75
2022-08-20T15:08:13.082Z,100758.66
2022-08-20T15:10:42.017Z,100717.72
2022-08-20T15:13:10.813Z,100739.59
2022-08-20T15:15:41.252Z,100731.22
2022-08-20T15:18:09.903Z,100760.91
2022-08-20T15:20:39.096Z,100731.41
2022-08-20T15:23:07.909Z,100693.34
2022-08-20T15:25:38.051Z,100722.81
2022-08-20T15:28:09.661Z,100750.69
2022-08-20T15:30:41.134Z,100704.63
2022-08-20T15:33:11.254Z,100711.06
2022-08-20T15:35:40.306Z,100750.25
2022-08-20T15:38:09.279Z,100740.44
2022-08-20T15:40:38.321Z,100753.81
2022-08-20T15:43:08.025Z,100686.63
2022-08-20T15:45:38.266Z,100751.56
2022-08-20T15:48:20.213Z,100747.69
2022-08-20T15:50:48.712Z,100765.56
2022-08-20T15:53:40.371Z,100763.25
2022-08-20T15:56:24.688Z,100741.00
2022-08-20T15:59:11.634Z,100757.03
2022-08-20T16:02:08.492Z,100750.19
2022-08-20T16:04:59.728Z,100756.88
2022-08-20T16:07:46.914Z,100760.19
2022-08-20T16:10:36.391Z,100731.56
2022-08-20T16:13:13.317Z,100745.13
2022-08-20T16:15:49.468Z,100759.44
2022-08-20T16:18:23.012Z,100762.41
2022-08-20T16:20:55.100Z,100741.84
2022-08-20T16:23:31.849Z,100758.06
2022-08-20T16:26:19.728Z,100647.13
2022-08-20T16:28:53.890Z,100748.69
2022-08-20T16:31:29.038Z,100752.22
2022-08-20T16:34:34.345Z,100733.53
2022-08-20T16:37:22.388Z,100739.41
2022-08-20T16:40:16.703Z,100751.06
2022-08-20T16:42:48.604Z,100694.53
2022-08-20T16:45:26.813Z,100708.91
2022-08-20T16:48:01.833Z,100767.47
2022-08-20T16:50:35.310Z,100754.03
2022-08-20T16:53:04.171Z,100735.38
2022-08-20T16:55:33.097Z,100736.38
2022-08-20T16:58:04.133Z,100741.09
2022-08-20T17:00:44.723Z,100722.22
2022-08-20T17:03:39.610Z,100707.25
2022-08-20T17:06:29.234Z,100741.41
2022-08-20T17:08:58.151Z,100738.91
2022-08-20T17:11:34.289Z,100715.13
2022-08-20T17:14:18.225Z,100746.97
2022-08-20T17:16:52.837Z,100747.25
2022-08-20T17:19:29.381Z,100754.97
2022-08-20T17:22:12.903Z,100754.84
2022-08-20T17:24:41.834Z,100736.97
2022-08-20T17:27:17.597Z,100733.81
2022-08-20T17:29:53.481Z,100721.72
2022-08-20T17:32:34.651Z,100735.75
2022-08-20T17:35:08.927Z,100748.59
2022-08-20T17:37:40.791Z,100747.66
2022-08-20T17:40:35.967Z,100758.63
2022-08-20T17:43:07.716Z,100760.56
2022-08-20T17:45:42.419Z,100743.47
2022-08-20T17:48:22.685Z,100734.00
2022-08-20T17:50:53.175Z,100757.34
2022-08-20T17:53:32.725Z,100754.69
2022-08-20T17:56:30.457Z,100758.22
2022-08-20T17:59:10.927Z,100730.94
2022-08-20T18:01:40.058Z,100721.03
2022-08-20T18:04:09.073Z,100709.00
2022-08-20T18:06:47.996Z,100742.66
2022-08-20T18:09:19.426Z,100750.22
2022-08-20T18:12:00.254Z,100740.84
2022-08-20T18:14:43.756Z,100751.06
2022-08-20T18:17:33.962Z,100760.97
2022-08-20T18:20:40.868Z,100748.34
2022-08-20T18:23:18.097Z,100746.38
2022-08-20T18:26:06.912Z,100716.47
2022-08-20T18:28:51.595Z,100725.34
2022-08-20T18:31:41.195Z,100729.56
2022-08-20T18:34:16.583Z,100727.22
2022-08-20T18:37:05.556Z,100747.13
2022-08-20T18:39:38.107Z,100726.22
2022-08-20T18:42:31.037Z,100736.56
2022-08-20T18:45:00.581Z,100711.91
2022-08-20T18:47:35.243Z,100743.25
2022-08-20T18:50:42.877Z,100725.94
2022-08-20T18:53:17.559Z,100713.91
2022-08-20T18:56:00.722Z,100725.72
2022-08-20T18:58:37.757Z,100719.19
2022-08-20T19:01:14.837Z,100678.19
2022-08-20T19:03:48.950Z,100678.28
2022-08-20T19:06:57.313Z,100650.00
2022-08-20T19:09:47.177Z,100710.75
2022-08-20T19:12:34.418Z,100686.88
2022-08-20T19:15:13.270Z,100705.59
2022-08-20T19:17:45.056Z,100708.47
2022-08-20T19:20:23.123Z,100658.75
2022-08-20T19:22:55.016Z,100679.28
2022-08-20T19:25:36.476Z,100681.28
2022-08-20T19:28:33.172Z,100700.31
2022-08-20T19:31:17.237Z,100668.53
2022-08-20T19:33:47.653Z,100680.75
2022-08-20T19:36:28.458Z,100688.41
2022-08-20T19:39:05.441Z,100669.38
2022-08-20T19:41:50.735Z,100665.34
2022-08-20T19:44:50.032Z,100688.25
2022-08-20T19:47:29.935Z,100676.25
2022-08-20T19:50:22.233Z,100677.66
2022-08-20T19:53:17.094Z,100671.09
2022-08-20T19:55:45.715Z,100676.78
2022-08-20T19:58:26.698Z,100653.88
2022-08-20T20:00:56.841Z,100680.66
2022-08-20T20:03:27.296Z,100660.91
2022-08-20T20:06:00.311Z,100683.13
2022-08-20T20:08:38.518Z,100672.09
2022-08-20T20:11:08.189Z,100656.41
2022-08-20T20:13:37.754Z,100674.38
2022-08-20T20:16:08.753Z,100683.13
2022-08-20T20:18:41.496Z,100660.63
2022-08-20T20:21:14.798Z,100661.44
2022-08-20T20:23:54.815Z,100648.75
2022-08-20T20:26:24.635Z,100662.44
2022-08-20T20:29:07.966Z,100667.84
2022-08-20T20:31:57.973Z,100683.66
2022-08-20T20:34:32.390Z,100653.44
2022-08-20T20:37:14.278Z,100674.47
2022-08-20T20:40:26.035Z,100690.91
2022-08-20T20:43:24.424Z,100618.56
2022-08-20T20:46:01.998Z,100642.03
2022-08-20T20:48:43.155Z,100681.88
2022-08-20T20:51:23.645Z,100655.97
2022-08-20T20:53:55.051Z,100682.06
2022-08-20T20:56:30.973Z,100646.72
2022-08-20T20:59:05.518Z,100664.91
2022-08-20T21:01:49.001Z,100679.38
2022-08-20T21:04:22.484Z,100667.00
2022-08-20T21:06:54.051Z,100671.09
2022-08-20T21:09:24.890Z,100670.31
2022-08-20T21:11:55.957Z,100691.09
2022-08-20T21:14:27.422Z,100658.56
2022-08-20T21:16:59.345Z,100653.91
2022-08-20T21:19:28.616Z,100689.38
2022-08-20T21:22:00.522Z,100655.75
2022-08-20T21:24:29.069Z,100630.13
2022-08-20T21:26:59.824Z,100667.66
2022-08-20T21:29:32.740Z,100664.94
2022-08-20T21:32:02.938Z,100642.59
2022-08-20T21:34:34.999Z,100658.19
2022-08-20T21:37:03.923Z,100613.66
2022-08-20T21:39:32.793Z,100628.41
2022-08-20T21:42:04.438Z,100654.03
2022-08-20T21:44:47.934Z,100650.84
2022-08-20T21:47:18.723Z,100653.56
2022-08-20T21:49:47.485Z,100644.44
2022-08-20T21:52:16.202Z,100589.34
2022-08-20T21:54:44.963Z,100648.63
2022-08-20T21:57:22.802Z,100644.38
2022-08-20T21:59:51.616Z,100652.31
2022-08-20T22:02:20.548Z,100613.69
2022-08-20T22:04:49.294Z,100609.47
2022-08-20T22:07:23.202Z,100589.56
2022-08-20T22:09:51.675Z,100647.28
2022-08-20T22:12:24.890Z,100639.59
2022-08-20T22:14:53.946Z,100607.13
2022-08-20T22:17:23.003Z,100607.22
2022-08-20T22:19:51.445Z,100661.19
2022-08-20T22:22:21.954Z,100566.56
2022-08-20T22:24:50.641Z,100649.00
2022-08-20T22:27:19.221Z,100631.41
2022-08-20T22:29:47.892Z,100601.41
2022-08-20T22:32:16.444Z,100651.97
2022-08-20T22:34:47.054Z,100652.69
2022-08-20T22:37:16.644Z,100641.34
2022-08-20T22:39:45.597Z,100643.72
2022-08-20T22:42:14.356Z,100661.84
2022-08-20T22:44:46.101Z,100623.25
2022-08-20T22:47:15.964Z,100647.28
2022-08-20T22:49:45.494Z,100605.88
2022-08-20T22:52:14.346Z,100638.19
2022-08-20T22:54:44.775Z,100648.34
2022-08-20T22:57:15.301Z,100641.00
2022-08-20T22:59:53.123Z,100649.72
2022-08-20T23:02:23.014Z,100654.31
2022-08-20T23:04:51.997Z,100590.63
2022-08-20T23:07:20.899Z,100652.84
2022-08-20T23:09:50.075Z,100625.72
2022-08-20T23:12:18.953Z,100619.59
2022-08-20T23:14:47.764Z,100649.56
2022-08-20T23:17:19.840Z,100578.69
2022-08-20T23:19:50.935Z,100607.88
2022-08-20T23:22:21.092Z,100645.56
2022-08-20T23:24:49.852Z,100645.66
2022-08-20T23:27:21.563Z,100640.34
2022-08-20T23:29:50.146Z,100631.13
2022-08-20T23:32:18.864Z,100565.03
2022-08-20T23:34:47.626Z,100618.41
2022-08-20T23:37:19.642Z,100609.94
2022-08-20T23:39:50.370Z,100616.69
2022-08-20T23:42:19.966Z,100470.69
2022-08-20T23:44:48.828Z,100631.75
2022-08-20T23:47:22.601Z,100622.31
2022-08-20T23:49:51.900Z,100585.13
2022-08-20T23:52:20.844Z,100617.31
2022-08-20T23:54:49.842Z,100607.75
2022-08-20T23:57:20.961Z,100597.88
2022-08-20T23:59:52.864Z,100480.03
